Time;durP1;ratioP1;P1;durP2;ratioP2;P2;SDS_P1;SDS_P2;PMS_P1;PMS_P2;Temp;Humidity;BMP_temperature;BMP_pressure;BME280_temperature;BME280_humidity;BME280_pressure;Samples;Min_cycle;Max_cycle;Signal;HPM_P1;HPM_P2
2023/04/10 00:01:01;;;;;;;7.68;6.45;;;19.10;57.60;;;;;;5039959;28;20109;-51
2023/04/10 00:03:27;;;;;;;7.05;6.30;;;19.20;57.60;;;;;;5046670;28;20486;-52
2023/04/10 00:05:53;;;;;;;7.53;6.60;;;19.20;57.60;;;;;;5044126;28;20029;-51
2023/04/10 00:08:23;;;;;;;10.02;6.78;;;19.10;57.50;;;;;;5041500;28;20056;-50
2023/04/10 00:10:48;;;;;;;6.78;6.05;;;19.10;57.50;;;;;;5036854;28;20051;-50
2023/04/10 00:13:15;;;;;;;7.85;6.20;;;19.10;57.50;;;;;;5036102;28;20574;-51
2023/04/10 00:15:41;;;;;;;12.13;7.18;;;19.10;57.50;;;;;;5034542;28;20037;-51
2023/04/10 00:18:06;;;;;;;9.15;7.53;;;19.10;57.50;;;;;;5033729;28;20037;-61
2023/04/10 00:20:32;;;;;;;7.43;6.68;;;19.10;57.50;;;;;;5041949;28;20037;-49
2023/04/10 00:22:57;;;;;;;7.75;6.95;;;19.10;57.40;;;;;;5032528;28;20507;-49
2023/04/10 00:25:23;;;;;;;9.73;7.95;;;19.10;57.40;;;;;;5045611;28;20029;-50
2023/04/10 00:27:49;;;;;;;7.50;6.70;;;19.10;57.40;;;;;;5040314;28;20120;-52
2023/04/10 00:30:14;;;;;;;10.13;7.30;;;19.10;57.40;;;;;;5040004;28;20037;-50
2023/04/10 00:32:40;;;;;;;7.60;6.40;;;19.10;57.30;;;;;;5042815;28;20125;-50
2023/04/10 00:35:07;;;;;;;9.70;7.05;;;19.10;57.40;;;;;;5046977;28;20088;-49
2023/04/10 00:37:33;;;;;;;7.63;6.40;;;19.10;57.30;;;;;;5043407;28;20082;-55
2023/04/10 00:39:58;;;;;;;8.30;6.95;;;19.10;57.30;;;;;;5038012;28;20033;-51
2023/04/10 00:42:24;;;;;;;8.80;7.00;;;19.10;57.30;;;;;;5036024;28;21331;-49
2023/04/10 00:44:49;;;;;;;9.48;6.95;;;19.00;57.30;;;;;;5034413;28;20387;-53
2023/04/10 00:47:15;;;;;;;6.68;6.03;;;19.10;57.30;;;;;;5038272;28;20447;-50
2023/04/10 00:49:42;;;;;;;9.45;6.93;;;19.00;57.20;;;;;;5036283;28;20033;-49
2023/04/10 00:52:08;;;;;;;8.50;6.72;;;19.00;57.20;;;;;;5035041;28;20041;-52
2023/04/10 00:54:35;;;;;;;7.85;7.05;;;19.00;57.20;;;;;;5042336;28;20033;-49
2023/04/10 00:57:02;;;;;;;6.80;6.20;;;19.00;57.20;;;;;;5037642;28;20029;-48
2023/04/10 00:59:27;;;;;;;8.02;6.63;;;19.00;57.20;;;;;;5041392;28;20043;-53
2023/04/10 01:01:53;;;;;;;8.02;6.60;;;19.00;57.20;;;;;;5039922;28;20034;-50
2023/04/10 01:04:20;;;;;;;7.25;6.32;;;19.00;57.20;;;;;;5043914;28;20205;-52
2023/04/10 01:06:59;;;;;;;7.07;6.07;;;19.00;57.10;;;;;;5039892;28;20041;-50
2023/04/10 01:09:47;;;;;;;7.82;6.30;;;19.00;57.00;;;;;;5036892;28;20093;-49
2023/04/10 01:12:27;;;;;;;7.32;6.35;;;19.00;57.00;;;;;;5037074;28;20029;-48
2023/04/10 01:15:15;;;;;;;8.60;6.97;;;19.00;57.00;;;;;;5037592;28;20064;-52
2023/04/10 01:17:41;;;;;;;8.00;6.05;;;19.00;57.00;;;;;;5036248;28;20095;-53
2023/04/10 01:20:15;;;;;;;7.10;6.40;;;19.00;56.90;;;;;;5033755;28;20116;-51
2023/04/10 01:22:40;;;;;;;9.00;6.93;;;19.00;57.00;;;;;;5046033;28;20422;-50
2023/04/10 01:25:20;;;;;;;7.25;6.35;;;19.00;56.90;;;;;;5041270;28;20030;-50
2023/04/10 01:28:05;;;;;;;9.23;6.82;;;19.00;56.90;;;;;;5039613;28;20064;-50
2023/04/10 01:30:34;;;;;;;9.25;6.97;;;19.00;56.90;;;;;;5042783;28;20044;-48
2023/04/10 01:33:01;;;;;;;6.93;6.22;;;19.00;56.90;;;;;;5040972;28;20029;-49
2023/04/10 01:35:29;;;;;;;7.20;6.50;;;18.90;56.80;;;;;;5037553;28;20082;-51
2023/04/10 01:37:56;;;;;;;6.45;5.75;;;18.90;56.80;;;;;;5038279;28;20140;-52
2023/04/10 01:40:24;;;;;;;7.25;6.53;;;18.90;56.80;;;;;;5034343;28;20041;-48
2023/04/10 01:42:54;;;;;;;6.75;6.15;;;18.90;56.70;;;;;;5039388;28;20040;-53
2023/04/10 01:45:24;;;;;;;7.30;6.57;;;18.90;56.70;;;;;;5036380;28;20150;-48
2023/04/10 01:47:50;;;;;;;7.03;6.32;;;19.00;56.80;;;;;;5031040;28;20407;-49
2023/04/10 01:50:16;;;;;;;7.28;6.57;;;18.90;56.70;;;;;;5040680;28;20037;-49
2023/04/10 01:52:44;;;;;;;7.88;6.65;;;18.90;56.70;;;;;;5040995;28;20033;-52
2023/04/10 01:55:10;;;;;;;7.20;6.45;;;18.90;56.70;;;;;;5037419;28;20116;-51
2023/04/10 01:57:35;;;;;;;7.28;6.57;;;18.90;56.70;;;;;;5046603;28;20041;-49
2023/04/10 02:00:05;;;;;;;7.95;7.13;;;18.90;56.70;;;;;;5044129;28;20030;-52
2023/04/10 02:02:31;;;;;;;7.20;6.38;;;18.90;56.60;;;;;;5045281;28;20054;-53
2023/04/10 02:04:57;;;;;;;7.22;6.53;;;18.90;56.70;;;;;;5039725;28;20033;-53
2023/04/10 02:07:36;;;;;;;7.55;6.15;;;18.90;56.70;;;;;;5036729;28;20718;-51
2023/04/10 02:10:23;;;;;;;8.05;6.63;;;18.90;56.70;;;;;;5034315;28;20746;-51
2023/04/10 02:12:58;;;;;;;7.50;6.70;;;18.80;56.70;;;;;;5038131;28;20406;-52
2023/04/10 02:15:26;;;;;;;7.45;6.75;;;18.80;56.70;;;;;;5033556;28;20045;-52
2023/04/10 02:17:53;;;;;;;7.57;6.57;;;18.80;56.70;;;;;;5039525;28;20029;-50
2023/04/10 02:20:21;;;;;;;7.25;6.53;;;18.80;56.70;;;;;;5044255;28;20071;-48
2023/04/10 02:22:47;;;;;;;8.15;6.80;;;18.80;56.70;;;;;;5043343;28;20690;-50
2023/04/10 02:25:13;;;;;;;7.10;6.40;;;18.80;56.70;;;;;;5037835;28;20398;-49
2023/04/10 02:27:39;;;;;;;7.05;6.35;;;18.80;56.60;;;;;;5037130;28;20056;-51
2023/04/10 02:30:05;;;;;;;7.88;6.90;;;18.80;56.70;;;;;;5040558;28;20034;-52
2023/04/10 02:32:34;;;;;;;6.75;6.05;;;18.80;56.70;;;;;;5040609;28;20025;-49
2023/04/10 02:35:03;;;;;;;6.90;6.20;;;18.80;56.70;;;;;;5037919;28;20166;-48
2023/04/10 02:37:29;;;;;;;7.18;6.47;;;18.70;56.70;;;;;;5037683;28;20444;-50
2023/04/10 02:39:55;;;;;;;6.28;5.68;;;18.70;56.70;;;;;;5032794;28;20041;-53
2023/04/10 02:42:20;;;;;;;7.70;6.55;;;18.70;56.70;;;;;;5050938;28;20025;-50
2023/04/10 02:44:46;;;;;;;6.70;6.07;;;18.70;56.70;;;;;;5036177;28;20037;-51
2023/04/10 02:47:12;;;;;;;7.13;6.43;;;18.70;56.70;;;;;;5041831;28;20147;-51
2023/04/10 02:49:38;;;;;;;7.10;6.40;;;18.70;56.70;;;;;;5044465;28;20037;-54
2023/04/10 02:52:03;;;;;;;6.75;6.07;;;18.70;56.70;;;;;;5039535;28;20064;-49
2023/04/10 02:54:29;;;;;;;7.40;6.70;;;18.70;56.80;;;;;;5042264;28;20025;-52
2023/04/10 02:56:56;;;;;;;6.97;6.28;;;18.70;56.70;;;;;;5043073;28;20497;-53
2023/04/10 02:59:21;;;;;;;7.57;6.78;;;18.60;56.60;;;;;;5040688;28;20037;-50
2023/04/10 03:01:47;;;;;;;6.05;5.45;;;18.60;56.70;;;;;;5037267;28;20044;-50
2023/04/10 03:04:13;;;;;;;7.30;6.60;;;18.60;56.70;;;;;;5037961;28;20033;-52
2023/04/10 03:06:38;;;;;;;7.38;6.65;;;18.60;56.70;;;;;;5028748;28;20037;-48
2023/04/10 03:09:04;;;;;;;6.47;5.85;;;18.60;56.70;;;;;;5034696;28;20029;-49
2023/04/10 03:11:29;;;;;;;6.70;6.10;;;18.60;56.60;;;;;;5040187;28;20126;-51
2023/04/10 03:13:57;;;;;;;7.05;6.03;;;18.60;56.60;;;;;;5030186;28;20462;-51
2023/04/10 03:16:23;;;;;;;6.60;6.00;;;18.60;56.60;;;;;;5040344;28;20633;-51
2023/04/10 03:18:48;;;;;;;7.32;6.32;;;18.60;56.60;;;;;;5040961;28;20299;-51
2023/04/10 03:21:14;;;;;;;6.97;6.38;;;18.70;56.60;;;;;;5037057;28;20109;-54
2023/04/10 03:23:39;;;;;;;7.28;6.57;;;18.70;57.00;;;;;;5044398;28;20036;-50
2023/04/10 03:26:05;;;;;;;6.88;6.18;;;18.90;55.90;;;;;;5039643;28;20033;-52
2023/04/10 03:28:32;;;;;;;6.65;6.05;;;19.00;55.50;;;;;;5042215;28;20028;-48
2023/04/10 03:30:58;;;;;;;7.38;5.93;;;19.20;55.30;;;;;;5036714;28;20103;-52
2023/04/10 03:33:23;;;;;;;7.15;6.45;;;19.30;55.00;;;;;;5036794;28;20100;-51
2023/04/10 03:35:49;;;;;;;7.10;6.40;;;19.50;54.70;;;;;;5034329;28;20040;-54
2023/04/10 03:38:15;;;;;;;6.70;6.00;;;19.60;54.50;;;;;;5035839;28;20399;-51
2023/04/10 03:40:40;;;;;;;6.53;5.80;;;19.70;54.20;;;;;;5039254;28;20036;-51
2023/04/10 03:43:06;;;;;;;6.57;5.97;;;19.70;53.80;;;;;;5031714;28;20064;-50
2023/04/10 03:45:31;;;;;;;6.50;5.90;;;19.80;53.70;;;;;;5047890;28;20111;-52
2023/04/10 03:47:58;;;;;;;6.30;5.60;;;19.90;53.70;;;;;;5038731;28;20033;-49
2023/04/10 03:50:23;;;;;;;6.00;5.50;;;20.00;53.30;;;;;;5038266;28;20029;-50
2023/04/10 03:52:50;;;;;;;6.50;5.90;;;20.10;53.30;;;;;;5040075;28;20025;-52
2023/04/10 03:55:19;;;;;;;6.20;5.60;;;20.10;53.10;;;;;;5040357;28;20643;-48
2023/04/10 03:57:45;;;;;;;6.55;5.55;;;20.20;52.90;;;;;;5037980;28;20112;-54
2023/04/10 04:00:12;;;;;;;6.22;5.63;;;20.20;52.90;;;;;;5037223;28;20372;-48
2023/04/10 04:02:37;;;;;;;8.10;5.93;;;20.20;52.90;;;;;;5037330;28;20325;-54
2023/04/10 04:05:03;;;;;;;6.20;5.18;;;20.20;53.00;;;;;;5034660;28;20526;-52
2023/04/10 04:07:29;;;;;;;6.68;6.07;;;20.20;53.10;;;;;;5035511;28;20041;-51
2023/04/10 04:09:54;;;;;;;7.03;6.32;;;20.20;53.20;;;;;;5033396;28;20026;-51
2023/04/10 04:12:20;;;;;;;6.93;5.85;;;20.10;53.10;;;;;;5040544;28;20063;-50
2023/04/10 04:14:45;;;;;;;7.32;6.10;;;20.10;53.50;;;;;;5041056;28;20116;-51
2023/04/10 04:17:11;;;;;;;6.82;6.07;;;20.10;53.40;;;;;;5039284;28;20029;-50
2023/04/10 04:19:36;;;;;;;6.82;6.10;;;20.10;53.60;;;;;;5042880;28;20032;-49
2023/04/10 04:22:02;;;;;;;7.57;6.15;;;20.00;53.70;;;;;;5038809;28;20036;-49
2023/04/10 04:24:28;;;;;;;6.60;6.00;;;20.00;53.80;;;;;;5044518;28;20037;-53
2023/04/10 04:26:55;;;;;;;6.82;5.53;;;19.90;53.80;;;;;;5037303;28;20036;-51
2023/04/10 04:29:21;;;;;;;6.03;5.43;;;19.90;53.90;;;;;;5038601;28;20037;-48
2023/04/10 04:31:46;;;;;;;7.30;6.55;;;19.90;54.00;;;;;;5035980;28;20084;-53
2023/04/10 04:34:12;;;;;;;5.93;5.38;;;19.90;54.00;;;;;;5036551;28;20043;-50
2023/04/10 04:36:37;;;;;;;6.65;5.88;;;19.80;54.00;;;;;;5037423;28;20032;-50
2023/04/10 04:39:03;;;;;;;6.50;5.88;;;19.80;54.10;;;;;;5036235;28;20055;-49
2023/04/10 04:41:32;;;;;;;7.88;6.38;;;19.80;54.10;;;;;;5044677;28;20038;-50
2023/04/10 04:43:59;;;;;;;7.15;6.10;;;19.70;54.20;;;;;;5043383;28;20124;-48
2023/04/10 04:46:25;;;;;;;7.20;5.75;;;19.70;54.30;;;;;;5042410;28;20713;-51
2023/04/10 04:48:51;;;;;;;6.85;6.18;;;19.70;54.40;;;;;;5044861;28;20115;-51
2023/04/10 04:51:16;;;;;;;6.30;5.70;;;19.70;54.70;;;;;;5042887;28;20051;-49
2023/04/10 04:53:42;;;;;;;6.43;5.75;;;19.60;54.50;;;;;;5044625;28;20075;-49
2023/04/10 04:56:07;;;;;;;6.45;5.75;;;19.60;54.60;;;;;;5042504;28;20139;-50
2023/04/10 04:58:33;;;;;;;7.25;6.50;;;19.60;54.60;;;;;;5040698;28;20032;-51
2023/04/10 05:00:59;;;;;;;6.25;5.65;;;19.60;54.60;;;;;;5037072;28;20037;-50
2023/04/10 05:03:27;;;;;;;6.60;5.90;;;19.50;54.50;;;;;;5038225;28;20036;-49
2023/04/10 05:05:53;;;;;;;6.85;6.25;;;19.50;54.40;;;;;;5037755;28;20093;-52
2023/04/10 05:08:18;;;;;;;6.63;5.97;;;19.50;54.30;;;;;;5034810;28;20447;-51
2023/04/10 05:10:44;;;;;;;7.03;6.22;;;19.50;54.20;;;;;;5047281;28;20123;-49
2023/04/10 05:13:09;;;;;;;6.97;6.28;;;19.50;54.30;;;;;;5042550;28;20615;-53
2023/04/10 05:15:35;;;;;;;8.10;6.30;;;19.50;54.30;;;;;;5043623;28;20056;-50
2023/04/10 05:18:00;;;;;;;6.75;6.05;;;19.40;54.20;;;;;;5045428;28;20230;-50
2023/04/10 05:20:26;;;;;;;7.47;6.45;;;19.40;54.30;;;;;;5046689;28;20029;-50
2023/04/10 05:22:52;;;;;;;6.20;5.60;;;19.40;54.40;;;;;;5041922;28;20037;-52
2023/04/10 05:25:18;;;;;;;6.68;5.97;;;19.30;54.50;;;;;;5040541;28;20530;-50
2023/04/10 05:27:43;;;;;;;7.07;6.38;;;19.30;54.50;;;;;;5039128;28;20198;-48
2023/04/10 05:30:09;;;;;;;6.35;5.75;;;19.30;54.50;;;;;;5041122;28;20026;-49
2023/04/10 05:32:35;;;;;;;6.85;6.15;;;19.30;54.40;;;;;;5040218;28;20557;-50
2023/04/10 05:35:00;;;;;;;6.55;5.95;;;19.30;54.40;;;;;;5041221;28;20086;-49
2023/04/10 05:37:26;;;;;;;7.50;6.80;;;19.30;54.40;;;;;;5036303;28;20036;-50
2023/04/10 05:39:51;;;;;;;7.30;6.60;;;19.20;54.30;;;;;;5042192;28;20029;-48
2023/04/10 05:42:16;;;;;;;6.82;6.22;;;19.30;54.40;;;;;;5039789;28;20027;-48
2023/04/10 05:44:43;;;;;;;7.20;6.50;;;19.30;54.40;;;;;;5042779;28;20063;-53
2023/04/10 05:47:08;;;;;;;6.32;5.70;;;19.20;54.40;;;;;;5042195;28;20036;-59
2023/04/10 05:49:34;;;;;;;6.50;5.90;;;19.20;54.40;;;;;;5041739;28;20564;-53
2023/04/10 05:52:00;;;;;;;6.82;6.15;;;19.20;54.40;;;;;;5040690;28;20105;-48
2023/04/10 05:54:25;;;;;;;6.82;6.07;;;19.10;54.30;;;;;;5041350;28;20080;-51
2023/04/10 05:56:51;;;;;;;7.15;6.45;;;19.20;54.40;;;;;;5038595;28;20490;-50
2023/04/10 05:59:17;;;;;;;7.57;6.22;;;19.20;54.60;;;;;;5036950;28;20082;-51
2023/04/10 06:01:43;;;;;;;6.30;5.70;;;19.10;54.40;;;;;;5040990;28;20033;-51
2023/04/10 06:04:09;;;;;;;6.40;5.75;;;19.10;54.50;;;;;;5036600;28;20033;-54
2023/04/10 06:06:35;;;;;;;7.22;6.35;;;19.10;54.50;;;;;;5039423;28;20395;-49
2023/04/10 06:09:00;;;;;;;6.20;5.60;;;19.10;54.50;;;;;;5040679;28;20056;-49
2023/04/10 06:11:26;;;;;;;6.07;5.47;;;19.10;54.60;;;;;;5041661;28;20056;-51
2023/04/10 06:13:51;;;;;;;6.97;6.28;;;19.10;54.60;;;;;;5041670;28;20048;-50
2023/04/10 06:16:17;;;;;;;6.78;6.10;;;19.10;54.70;;;;;;5043201;28;20057;-50
2023/04/10 06:18:42;;;;;;;6.78;6.07;;;19.10;54.80;;;;;;5044805;28;20044;-48
2023/04/10 06:21:08;;;;;;;6.85;6.03;;;19.10;54.80;;;;;;5040027;28;20033;-49
2023/04/10 06:23:34;;;;;;;7.38;6.53;;;19.10;55.00;;;;;;5035755;28;20430;-50
2023/04/10 06:26:00;;;;;;;10.30;6.75;;;19.10;55.10;;;;;;5037436;28;20394;-50
2023/04/10 06:28:26;;;;;;;8.85;5.97;;;19.10;55.30;;;;;;5038729;28;20033;-51
2023/04/10 06:30:51;;;;;;;7.75;5.82;;;19.10;55.50;;;;;;5037989;28;20040;-49
2023/04/10 06:33:17;;;;;;;8.57;4.90;;;19.00;56.40;;;;;;5035561;28;20542;-49
2023/04/10 06:35:42;;;;;;;10.30;6.35;;;19.10;56.60;;;;;;5042813;28;20551;-50
2023/04/10 06:38:08;;;;;;;15.85;5.95;;;19.10;56.60;;;;;;5040009;28;20056;-52
2023/04/10 06:40:34;;;;;;;11.32;5.53;;;19.10;57.10;;;;;;5040727;28;20078;-51
2023/04/10 06:43:00;;;;;;;11.15;6.13;;;19.20;57.10;;;;;;5056112;22;20060;-60
2023/04/10 06:45:26;;;;;;;14.68;6.18;;;19.20;56.90;;;;;;5053444;28;20039;-61
2023/04/10 06:47:52;;;;;;;7.22;5.63;;;19.30;56.70;;;;;;5058825;28;20129;-63
2023/04/10 06:50:18;;;;;;;10.05;6.38;;;19.30;56.60;;;;;;5050940;28;20028;-63
2023/04/10 06:52:44;;;;;;;8.95;5.85;;;19.30;56.60;;;;;;5057179;28;20043;-63
2023/04/10 06:55:09;;;;;;;7.82;5.35;;;19.40;56.50;;;;;;5055737;28;20025;-62
2023/04/10 06:57:35;;;;;;;9.55;6.07;;;19.40;56.60;;;;;;5052373;28;20040;-62
2023/04/10 07:00:00;;;;;;;6.97;5.97;;;19.40;56.50;;;;;;5050959;28;20029;-63
2023/04/10 07:02:26;;;;;;;7.63;5.78;;;19.40;56.50;;;;;;5053713;28;20030;-63
2023/04/10 07:04:52;;;;;;;9.50;5.97;;;19.30;56.30;;;;;;5054158;28;20039;-64
2023/04/10 07:07:18;;;;;;;12.75;6.32;;;19.30;56.30;;;;;;5052847;28;20097;-63
2023/04/10 07:09:43;;;;;;;9.93;5.88;;;19.40;56.30;;;;;;5051130;28;20549;-63
2023/04/10 07:12:09;;;;;;;7.22;5.53;;;19.40;56.30;;;;;;5057287;28;20406;-59
2023/04/10 07:14:35;;;;;;;10.13;6.45;;;19.40;56.20;;;;;;5060218;28;20374;-62
2023/04/10 07:17:00;;;;;;;7.63;5.65;;;19.40;56.70;;;;;;5057287;28;20036;-62
2023/04/10 07:19:26;;;;;;;8.00;5.93;;;19.40;56.10;;;;;;5056876;28;20040;-61
2023/04/10 07:21:52;;;;;;;8.68;5.75;;;19.40;56.00;;;;;;5051145;28;20327;-62
2023/04/10 07:24:18;;;;;;;8.45;6.45;;;19.50;56.00;;;;;;5055588;28;20040;-64
2023/04/10 07:26:44;;;;;;;21.33;11.68;;;19.50;56.00;;;;;;5054399;28;20063;-61
2023/04/10 07:29:10;;;;;;;29.38;15.70;;;19.40;56.30;;;;;;5055019;28;20024;-61
2023/04/10 07:31:35;;;;;;;29.67;17.40;;;19.40;56.50;;;;;;5048749;28;20055;-61
2023/04/10 07:34:03;;;;;;;30.65;16.58;;;19.40;56.80;;;;;;5051865;28;20074;-61
2023/04/10 07:36:28;;;;;;;29.92;17.48;;;19.40;56.80;;;;;;5055966;28;20036;-61
2023/04/10 07:38:55;;;;;;;31.52;17.08;;;19.40;56.70;;;;;;5054823;28;20154;-62
2023/04/10 07:41:21;;;;;;;27.27;15.48;;;19.40;56.60;;;;;;5058721;28;20081;-62
2023/04/10 07:43:47;;;;;;;23.38;14.23;;;19.40;56.30;;;;;;5061683;28;20155;-61
2023/04/10 07:46:12;;;;;;;23.70;13.13;;;19.30;55.80;;;;;;5056230;28;20056;-62
2023/04/10 07:48:38;;;;;;;18.88;12.70;;;19.30;55.50;;;;;;5052267;28;20114;-59
2023/04/10 07:51:04;;;;;;;21.25;12.88;;;19.30;55.50;;;;;;5054489;28;20233;-60
2023/04/10 07:53:30;;;;;;;24.73;12.80;;;19.30;55.40;;;;;;5052164;28;20040;-60
2023/04/10 07:55:55;;;;;;;15.43;12.05;;;19.20;55.50;;;;;;5049575;28;20041;-62
2023/04/10 07:58:21;;;;;;;20.20;11.48;;;19.20;55.60;;;;;;5052160;28;20086;-61
2023/04/10 08:00:46;;;;;;;20.83;11.05;;;19.20;55.50;;;;;;5050467;28;20036;-61
2023/04/10 08:03:14;;;;;;;17.30;11.75;;;19.30;55.30;;;;;;5054344;28;20025;-62
2023/04/10 08:05:40;;;;;;;18.40;11.93;;;19.30;55.70;;;;;;5054204;28;20044;-62
2023/04/10 08:08:05;;;;;;;22.70;10.23;;;19.20;55.00;;;;;;5052194;28;20032;-62
2023/04/10 08:10:31;;;;;;;15.07;10.75;;;19.20;54.80;;;;;;5049004;28;20078;-61
2023/04/10 08:12:56;;;;;;;18.02;10.82;;;19.20;54.60;;;;;;5053592;28;20029;-62
2023/04/10 08:15:22;;;;;;;13.38;9.23;;;19.20;54.60;;;;;;5050663;28;20032;-62
2023/04/10 08:17:47;;;;;;;23.17;11.38;;;19.20;54.60;;;;;;5061235;28;20113;-62
2023/04/10 08:20:13;;;;;;;14.75;9.75;;;19.20;54.80;;;;;;5055924;28;20025;-62
2023/04/10 08:22:38;;;;;;;12.57;9.05;;;19.20;54.80;;;;;;5049385;28;20025;-62
2023/04/10 08:25:04;;;;;;;15.25;9.82;;;19.20;54.90;;;;;;5059516;28;20141;-62
2023/04/10 08:27:30;;;;;;;11.95;9.70;;;19.20;55.00;;;;;;5052958;28;20525;-62
2023/04/10 08:29:56;;;;;;;10.52;8.48;;;19.20;54.90;;;;;;5052864;28;20229;-62
2023/04/10 08:32:21;;;;;;;13.15;9.05;;;19.20;54.90;;;;;;5057196;28;20035;-62
2023/04/10 08:34:48;;;;;;;13.10;8.93;;;19.20;54.80;;;;;;5060058;28;20024;-60
2023/04/10 08:37:14;;;;;;;12.15;8.50;;;19.20;54.80;;;;;;5056311;28;20073;-60
2023/04/10 08:39:40;;;;;;;10.52;8.40;;;19.20;54.80;;;;;;5055169;28;20043;-61
2023/04/10 08:42:06;;;;;;;13.45;8.07;;;19.30;54.90;;;;;;5057043;28;20617;-62
2023/04/10 08:44:32;;;;;;;12.40;8.60;;;19.30;54.90;;;;;;5054655;28;20406;-61
2023/04/10 08:46:59;;;;;;;11.60;8.93;;;19.30;54.90;;;;;;5059181;28;20559;-62
2023/04/10 08:49:43;;;;;;;11.05;8.30;;;19.30;54.90;;;;;;5055214;28;20545;-62
2023/04/10 08:52:19;;;;;;;12.77;8.27;;;19.30;54.90;;;;;;5055440;28;20028;-62
2023/04/10 08:54:49;;;;;;;11.02;7.93;;;19.30;54.90;;;;;;5052618;28;20032;-62
2023/04/10 08:57:19;;;;;;;11.13;8.48;;;19.30;54.90;;;;;;5057676;28;20033;-61
2023/04/10 08:59:45;;;;;;;9.05;7.75;;;19.30;54.90;;;;;;5054613;28;20041;-62
2023/04/10 09:02:10;;;;;;;9.65;7.97;;;19.30;54.90;;;;;;5058219;28;20047;-62
2023/04/10 09:04:36;;;;;;;10.50;7.40;;;19.30;54.90;;;;;;5058653;28;20033;-62
2023/04/10 09:07:01;;;;;;;9.98;7.63;;;19.30;55.50;;;;;;5057199;28;20028;-62
2023/04/10 09:09:31;;;;;;;12.02;8.00;;;19.40;55.00;;;;;;5061243;28;20035;-63
2023/04/10 09:11:59;;;;;;;9.93;7.45;;;19.30;54.90;;;;;;5057780;28;20028;-63
2023/04/10 09:14:26;;;;;;;8.57;7.35;;;19.40;55.00;;;;;;5053514;28;20437;-63
2023/04/10 09:16:52;;;;;;;9.82;7.82;;;19.40;55.00;;;;;;5059235;28;20028;-63
2023/04/10 09:19:31;;;;;;;14.00;7.30;;;19.40;54.90;;;;;;5054324;28;20039;-63
2023/04/10 09:21:57;;;;;;;9.40;7.13;;;19.40;54.90;;;;;;5051169;28;20397;-62
2023/04/10 09:24:23;;;;;;;9.65;7.35;;;19.40;54.90;;;;;;5057790;28;20021;-62
2023/04/10 09:26:49;;;;;;;9.43;6.88;;;19.40;54.80;;;;;;5060720;28;20029;-62
2023/04/10 09:29:15;;;;;;;9.00;7.32;;;19.40;54.80;;;;;;5055567;28;20036;-60
2023/04/10 09:31:42;;;;;;;11.07;6.80;;;19.40;54.80;;;;;;5057741;28;20425;-62
2023/04/10 09:34:10;;;;;;;7.75;6.88;;;19.40;54.80;;;;;;5052489;28;20033;-62
2023/04/10 09:36:36;;;;;;;10.00;7.22;;;19.40;54.80;;;;;;5049210;28;20487;-66
2023/04/10 09:39:03;;;;;;;9.60;7.32;;;19.40;54.70;;;;;;5056643;28;20052;-61
2023/04/10 09:41:28;;;;;;;7.95;6.85;;;19.40;54.80;;;;;;5053045;28;20036;-61
2023/04/10 09:44:08;;;;;;;7.57;6.50;;;19.40;54.80;;;;;;5054568;28;20036;-62
2023/04/10 09:46:34;;;;;;;8.07;7.03;;;19.40;54.80;;;;;;5054097;28;20029;-62
2023/04/10 09:49:06;;;;;;;8.68;6.95;;;19.40;54.80;;;;;;5049355;28;20040;-62
2023/04/10 09:51:33;;;;;;;7.50;6.10;;;19.40;54.70;;;;;;5056181;28;20078;-62
2023/04/10 09:53:59;;;;;;;8.70;6.72;;;19.40;54.70;;;;;;5060146;28;20029;-61
2023/04/10 09:56:26;;;;;;;7.03;6.32;;;19.40;54.70;;;;;;5055309;28;20029;-62
2023/04/10 09:58:57;;;;;;;8.05;6.85;;;19.40;54.80;;;;;;5059235;28;20043;-62
2023/04/10 10:01:27;;;;;;;8.60;6.70;;;19.40;54.70;;;;;;5048424;28;20064;-62
2023/04/10 10:03:59;;;;;;;9.32;6.68;;;19.50;54.70;;;;;;5053559;28;20410;-62
2023/04/10 10:06:25;;;;;;;6.53;5.82;;;19.40;54.60;;;;;;5045449;28;20061;-62
2023/04/10 10:08:51;;;;;;;7.00;6.30;;;19.40;54.70;;;;;;5052026;28;20039;-62
2023/04/10 10:11:20;;;;;;;6.88;6.18;;;19.50;54.80;;;;;;5055323;28;20025;-62
2023/04/10 10:13:51;;;;;;;6.18;5.57;;;19.40;54.70;;;;;;5061508;28;20024;-62
2023/04/10 10:16:55;;;;;;;9.02;6.25;;;19.50;54.70;;;;;;5059093;28;20181;-61
2023/04/10 10:19:30;;;;;;;7.38;6.55;;;19.40;54.70;;;;;;5039008;28;20494;-61
2023/04/10 10:21:58;;;;;;;7.45;6.10;;;19.50;54.80;;;;;;5039529;28;20041;-62
2023/04/10 10:24:26;;;;;;;6.10;5.50;;;19.40;54.80;;;;;;5048034;28;20028;-63
2023/04/10 10:26:54;;;;;;;7.07;6.22;;;19.50;54.80;;;;;;5055090;28;20367;-63
2023/04/10 10:29:23;;;;;;;6.72;5.75;;;19.40;54.80;;;;;;5058679;28;20056;-64
2023/04/10 10:31:48;;;;;;;8.30;5.80;;;19.40;54.70;;;;;;5054955;28;20047;-67
2023/04/10 10:34:15;;;;;;;7.45;6.13;;;19.40;54.80;;;;;;5049225;28;20029;-63
2023/04/10 10:36:41;;;;;;;7.85;5.97;;;19.40;54.80;;;;;;5057172;28;20078;-61
2023/04/10 10:39:40;;;;;;;6.50;5.60;;;19.40;54.80;;;;;;5057101;28;20056;-62
2023/04/10 10:42:14;;;;;;;6.93;5.70;;;19.40;54.80;;;;;;5049126;28;20143;-63
2023/04/10 10:44:42;;;;;;;6.65;5.95;;;19.40;54.90;;;;;;5051603;28;20187;-62
2023/04/10 10:47:27;;;;;;;5.75;5.18;;;19.40;54.90;;;;;;5054772;28;20130;-64
2023/04/10 10:49:58;;;;;;;6.32;5.63;;;19.40;55.00;;;;;;5050551;28;20024;-62
2023/04/10 10:52:48;;;;;;;6.30;5.05;;;19.40;55.00;;;;;;5053952;28;20520;-63
2023/04/10 10:55:38;;;;;;;6.40;5.30;;;19.40;55.00;;;;;;5056059;28;20040;-63
2023/04/10 10:58:08;;;;;;;6.60;5.50;;;19.40;55.00;;;;;;5050987;28;20026;-63
2023/04/10 11:00:49;;;;;;;6.05;5.45;;;19.40;55.00;;;;;;5052108;28;20029;-63
2023/04/10 11:03:14;;;;;;;8.75;5.68;;;19.40;55.00;;;;;;5056407;28;20016;-63
2023/04/10 11:05:54;;;;;;;6.00;5.40;;;19.40;55.00;;;;;;5056892;28;20393;-63
2023/04/10 11:08:32;;;;;;;6.57;5.75;;;19.40;55.00;;;;;;5053341;28;20024;-63
2023/04/10 11:11:01;;;;;;;5.97;5.38;;;19.40;55.00;;;;;;5054163;28;20135;-63
2023/04/10 11:13:27;;;;;;;6.07;5.40;;;19.40;55.10;;;;;;5052319;28;20017;-63
2023/04/10 11:15:57;;;;;;;5.60;4.97;;;19.40;55.10;;;;;;5052608;28;20024;-63
2023/04/10 11:18:47;;;;;;;6.88;5.70;;;19.40;55.10;;;;;;5050040;28;20522;-63
2023/04/10 11:21:13;;;;;;;5.85;5.25;;;19.40;55.10;;;;;;5056161;28;20055;-62
2023/04/10 11:23:59;;;;;;;6.05;5.32;;;19.40;55.10;;;;;;5053361;28;20029;-63
2023/04/10 11:26:34;;;;;;;5.72;4.70;;;19.30;55.10;;;;;;5051968;28;20037;-63
2023/04/10 11:29:05;;;;;;;5.80;4.97;;;19.30;55.10;;;;;;5055427;28;20032;-63
2023/04/10 11:31:34;;;;;;;5.43;4.65;;;19.40;55.20;;;;;;5049071;28;20116;-62
2023/04/10 11:34:05;;;;;;;5.15;4.65;;;19.40;55.20;;;;;;5053341;28;20024;-62
2023/04/10 11:36:32;;;;;;;6.60;4.95;;;19.30;55.10;;;;;;5054888;28;20036;-62
2023/04/10 11:39:04;;;;;;;5.22;4.53;;;19.30;55.10;;;;;;5060629;28;20032;-62
2023/04/10 11:41:35;;;;;;;7.38;5.57;;;19.30;55.20;;;;;;5057199;28;20029;-62
2023/04/10 11:44:04;;;;;;;5.25;4.55;;;19.30;55.10;;;;;;5053325;28;20048;-62
2023/04/10 11:46:30;;;;;;;6.30;4.90;;;19.40;55.30;;;;;;5047764;28;20029;-63
2023/04/10 11:49:00;;;;;;;6.63;4.82;;;19.30;55.20;;;;;;5049212;28;20116;-63
2023/04/10 11:51:27;;;;;;;5.45;4.85;;;19.30;55.20;;;;;;5054266;28;20430;-62
2023/04/10 11:54:12;;;;;;;5.05;4.55;;;19.30;55.20;;;;;;5055556;28;20469;-63
2023/04/10 11:56:40;;;;;;;4.78;4.32;;;19.40;55.20;;;;;;5065055;28;20041;-63
2023/04/10 11:59:08;;;;;;;5.38;4.75;;;19.30;55.20;;;;;;5058594;28;20048;-63
2023/04/10 12:01:34;;;;;;;5.43;4.28;;;19.30;55.20;;;;;;5052993;28;20074;-63
2023/04/10 12:04:00;;;;;;;5.28;4.68;;;19.30;55.20;;;;;;5058364;28;20055;-62
2023/04/10 12:06:26;;;;;;;6.32;4.88;;;19.40;55.20;;;;;;5060869;28;20060;-63
2023/04/10 12:08:52;;;;;;;5.63;4.15;;;19.30;55.20;;;;;;5059919;28;20039;-61
2023/04/10 12:11:20;;;;;;;5.93;4.55;;;19.40;55.30;;;;;;5057890;28;20033;-62
2023/04/10 12:13:49;;;;;;;5.38;4.82;;;19.30;55.20;;;;;;5057783;28;20146;-63
2023/04/10 12:16:15;;;;;;;4.78;4.32;;;19.30;55.20;;;;;;5056619;28;20051;-62
2023/04/10 12:18:41;;;;;;;4.68;4.20;;;19.30;55.20;;;;;;5056405;28;20036;-62
2023/04/10 12:21:07;;;;;;;4.50;4.10;;;19.30;55.20;;;;;;5057034;28;20361;-62
2023/04/10 12:23:35;;;;;;;5.10;4.60;;;19.40;55.30;;;;;;5057825;28;20037;-62
2023/04/10 12:26:14;;;;;;;4.72;4.22;;;19.30;55.20;;;;;;5057908;28;20360;-62
2023/04/10 12:28:41;;;;;;;5.05;4.25;;;19.40;55.30;;;;;;5058606;28;20025;-62
2023/04/10 12:31:08;;;;;;;4.72;4.20;;;19.30;55.30;;;;;;5065817;28;20035;-61
2023/04/10 12:33:33;;;;;;;5.07;4.57;;;19.30;55.20;;;;;;5062767;28;20029;-62
2023/04/10 12:35:59;;;;;;;5.72;4.22;;;19.30;55.30;;;;;;5066465;28;20531;-62
2023/04/10 12:38:35;;;;;;;5.20;4.25;;;19.40;55.30;;;;;;5056048;28;20044;-62
2023/04/10 12:41:01;;;;;;;4.72;4.32;;;19.30;55.30;;;;;;5056826;28;20043;-62
2023/04/10 12:43:32;;;;;;;4.93;4.07;;;19.30;55.30;;;;;;5050999;28;20047;-62
2023/04/10 12:45:58;;;;;;;4.55;4.15;;;19.30;55.30;;;;;;5055548;28;20467;-62
2023/04/10 12:48:23;;;;;;;4.70;4.20;;;19.30;55.30;;;;;;5056143;28;20501;-62